Pompeys Pillar, MT (59064)

7:50 AM MST on February 12, 2016 (GMT -0700)
Billings Logan International | | Change Station
CLOSE
Current Station
Airport
Location: Billings,
Elevation: 3570 ft
Nearby Weather Stations

Elev 3570 ft 45.81 °N, 108.54 °W | Updated 46 minutes ago

Overcast
Overcast
31 °F
Feels Like 24 °F
N
7
Wind Variable Wind from NNE

Today
High -- | Low -- °F
--% Chance of Precip.
Yesterday
High -- | Low -- °F
Precip. -- in
Pressure 30.28 in
Visibility 7.0 miles
Clouds Scattered Clouds 200 ft
Mostly Cloudy 4500 ft
Overcast 7000 ft
Windchill 24 °F
Dew Point 29 °F
Humidity 92%
Rainfall 0.00 in
Snow Depth Not available.
7:19 AM 5:33 PM
Waxing Crescent, 21% visible
SPECI KBIL 121404Z 03006KT 7SM SCT002 BKN045 OVC070 M01/M02 A3028 RMK AO2 T10061017
Pressure 30.28 in
Visibility 7.0 miles
Clouds Scattered Clouds 200 ft
Mostly Cloudy 4500 ft
Overcast 7000 ft
Windchill 24 °F
Dew Point 29 °F
Humidity 92%
Rainfall 0.00 in
Snow Depth Not available.
7:19 AM 5:33 PM
Waxing Crescent, 21% visible
SPECI KBIL 121404Z 03006KT 7SM SCT002 BKN045 OVC070 M01/M02 A3028 RMK AO2 T10061017

10-Day Weather Forecast

Almanac

Astronomy

Feb. 12, 2016 Rise Set
Actual Time
Civil Twilight
Nautical Twilight
Astronomical Twilight
Moon
Length of Visible Light
Length of Day
Tomorrow will be .
, % of the Moon is Illuminated

Today's Extremes

State Highs State Lows

Community

WunderPhotos

Upload Photos

1,892,318 photos uploaded!

WunderBlog® & News

Nearby

Air Quality

  Air Quality AQ Index Pollutant
Not available.

Snow Depth

Station Depth Elevation

Earthquake Activity

City Distance Mag. Time & Date
Minimum magnitude displayed is 2.5.

Coastal Water Temperatures

Place Temperature

Stations

Nearby Weather Stations

Station Location Temp. Windchill Dew Point Humidity Wind Precip. Elev Updated Type
                   

Watches & Warnings

There are currently no watches in effect.